createdAt,value
2017-06-27T00:00:33.433Z,0
2017-06-27T00:01:33.421Z,0
2017-06-27T00:02:33.399Z,0
2017-06-27T00:03:33.372Z,0
2017-06-27T00:04:33.361Z,0
2017-06-27T00:05:33.342Z,0
2017-06-27T00:06:33.314Z,0
2017-06-27T00:07:33.293Z,0
2017-06-27T00:08:33.262Z,0
2017-06-27T00:09:33.295Z,0
2017-06-27T00:10:33.225Z,0
2017-06-27T00:11:33.209Z,0
2017-06-27T00:12:33.189Z,0
2017-06-27T00:13:33.193Z,0
2017-06-27T00:14:33.138Z,0
2017-06-27T00:15:33.174Z,0
2017-06-27T00:16:33.102Z,0
2017-06-27T00:17:33.087Z,0
2017-06-27T00:18:33.103Z,0
2017-06-27T00:19:33.041Z,0
2017-06-27T00:20:32.713Z,0
2017-06-27T00:21:32.698Z,0
2017-06-27T00:22:32.971Z,0
2017-06-27T00:23:32.952Z,0
2017-06-27T00:24:32.924Z,0
2017-06-27T00:25:32.907Z,0
2017-06-27T00:26:32.895Z,0
2017-06-27T00:27:32.573Z,0
2017-06-27T00:28:32.548Z,0
2017-06-27T00:29:32.527Z,0
2017-06-27T00:30:32.802Z,0
2017-06-27T00:31:33.088Z,0
2017-06-27T00:32:32.762Z,0
2017-06-27T00:33:32.732Z,0
2017-06-27T00:34:32.706Z,0
2017-06-27T00:35:32.728Z,0
2017-06-27T00:36:32.684Z,0
2017-06-27T00:37:32.654Z,0
2017-06-27T00:38:32.025Z,0
2017-06-27T00:39:32.612Z,0
2017-06-27T00:40:32.586Z,0
2017-06-27T00:41:32.568Z,0
2017-06-27T00:42:32.548Z,0
2017-06-27T00:43:32.525Z,0
2017-06-27T00:44:32.196Z,0
2017-06-27T00:45:32.484Z,0
2017-06-27T00:46:32.463Z,0
2017-06-27T00:47:32.136Z,0
2017-06-27T00:48:32.458Z,0
2017-06-27T00:49:32.409Z,0
2017-06-27T00:50:32.385Z,0
2017-06-27T00:51:32.346Z,0
2017-06-27T00:52:32.330Z,0
2017-06-27T00:53:32.359Z,0
2017-06-27T00:54:32.341Z,0
2017-06-27T00:55:32.271Z,0
2017-06-27T00:56:31.999Z,0
2017-06-27T00:57:32.236Z,0
2017-06-27T00:58:32.207Z,0
2017-06-27T00:59:32.181Z,0
2017-06-27T01:00:31.870Z,0
2017-06-27T01:01:32.141Z,0
2017-06-27T01:02:32.133Z,0
2017-06-27T01:03:32.113Z,0
2017-06-27T01:04:32.079Z,0
2017-06-27T01:05:32.058Z,0
2017-06-27T01:06:32.103Z,0
2017-06-27T01:07:32.012Z,0
2017-06-27T01:08:31.990Z,0
2017-06-27T01:09:31.971Z,0
2017-06-27T01:10:31.958Z,0
2017-06-27T01:11:31.936Z,0
2017-06-27T01:12:31.956Z,0
2017-06-27T01:13:31.884Z,0
2017-06-27T01:14:31.864Z,0
2017-06-27T01:15:31.840Z,0
2017-06-27T01:16:31.523Z,0
2017-06-27T01:17:31.799Z,0
2017-06-27T01:18:31.826Z,0
2017-06-27T01:19:31.763Z,0
2017-06-27T01:20:31.728Z,0
2017-06-27T01:21:31.724Z,0
2017-06-27T01:22:31.451Z,0
2017-06-27T01:23:31.375Z,0
2017-06-27T01:24:31.653Z,0
2017-06-27T01:25:31.637Z,0
2017-06-27T01:26:31.307Z,0
2017-06-27T01:27:31.579Z,0
2017-06-27T01:28:31.560Z,0
2017-06-27T01:29:31.541Z,0
2017-06-27T01:30:31.524Z,0
2017-06-27T01:31:31.208Z,0
2017-06-27T01:32:31.477Z,0
2017-06-27T01:33:31.516Z,0
2017-06-27T01:34:31.432Z,0
2017-06-27T01:35:31.411Z,0
2017-06-27T01:36:31.397Z,0
2017-06-27T01:37:31.127Z,0
2017-06-27T01:38:31.088Z,0
2017-06-27T01:39:31.320Z,0
2017-06-27T01:40:31.302Z,0
2017-06-27T01:41:31.282Z,0
2017-06-27T01:42:31.276Z,0
2017-06-27T01:43:30.929Z,0
2017-06-27T01:44:31.226Z,0
2017-06-27T01:45:30.952Z,0
2017-06-27T01:46:31.176Z,0
2017-06-27T01:47:31.153Z,0
2017-06-27T01:48:31.141Z,0
2017-06-27T01:49:31.110Z,0
2017-06-27T01:50:31.339Z,0
2017-06-27T01:51:31.075Z,0
2017-06-27T01:52:31.061Z,0
2017-06-27T01:53:31.022Z,0
2017-06-27T01:54:31.015Z,0
2017-06-27T01:55:30.982Z,0
2017-06-27T01:56:30.965Z,0
2017-06-27T01:57:30.934Z,0
2017-06-27T01:58:30.915Z,0
2017-06-27T01:59:30.925Z,0
2017-06-27T02:00:30.873Z,0
2017-06-27T02:01:30.852Z,0
2017-06-27T02:02:30.832Z,0
2017-06-27T02:03:30.814Z,0
2017-06-27T02:04:30.490Z,0
2017-06-27T02:05:30.765Z,0
2017-06-27T02:06:30.748Z,0
2017-06-27T02:07:30.729Z,0
2017-06-27T02:08:30.760Z,0
2017-06-27T02:09:30.375Z,0
2017-06-27T02:10:30.655Z,0
2017-06-27T02:11:30.658Z,0
2017-06-27T02:12:30.618Z,0
2017-06-27T02:13:30.649Z,0
2017-06-27T02:14:30.578Z,0
2017-06-27T02:15:30.283Z,0
2017-06-27T02:16:30.523Z,0
2017-06-27T02:17:30.507Z,0
2017-06-27T02:18:30.187Z,0
2017-06-27T02:19:30.473Z,0
2017-06-27T02:20:30.443Z,0
2017-06-27T02:21:30.430Z,0
2017-06-27T02:22:30.407Z,0
2017-06-27T02:23:30.377Z,0
2017-06-27T02:24:30.362Z,0
2017-06-27T02:25:30.338Z,0
2017-06-27T02:26:30.311Z,0
2017-06-27T02:27:29.988Z,0
2017-06-27T02:28:30.281Z,0
2017-06-27T02:29:30.258Z,0
2017-06-27T02:30:30.235Z,0
2017-06-27T02:31:29.910Z,0
2017-06-27T02:32:30.238Z,0
2017-06-27T02:33:29.863Z,0
2017-06-27T02:34:29.848Z,0
2017-06-27T02:35:29.823Z,0
2017-06-27T02:36:30.105Z,0
2017-06-27T02:37:29.782Z,0
2017-06-27T02:38:30.061Z,0
2017-06-27T02:39:30.032Z,0
2017-06-27T02:40:29.402Z,0
2017-06-27T02:41:29.695Z,0
2017-06-27T02:42:29.973Z,0
2017-06-27T02:43:29.947Z,0
2017-06-27T02:44:29.931Z,0
2017-06-27T02:45:29.907Z,0
2017-06-27T02:46:29.927Z,0
2017-06-27T02:47:29.864Z,0
2017-06-27T02:48:29.535Z,0
2017-06-27T02:49:29.509Z,0
2017-06-27T02:50:29.796Z,0
2017-06-27T02:51:29.781Z,0
2017-06-27T02:52:29.452Z,0
2017-06-27T02:53:29.736Z,0
2017-06-27T02:54:29.705Z,0
2017-06-27T02:55:29.700Z,0
2017-06-27T02:56:29.663Z,0
2017-06-27T02:57:29.636Z,0
2017-06-27T02:58:29.613Z,0
2017-06-27T02:59:29.595Z,5
2017-06-27T03:00:29.280Z,5
2017-06-27T03:01:29.555Z,5
2017-06-27T03:02:29.539Z,5
2017-06-27T03:03:29.519Z,5
2017-06-27T03:04:29.493Z,5
2017-06-27T03:05:29.516Z,5
2017-06-27T03:06:29.445Z,5
2017-06-27T03:07:29.422Z,10
2017-06-27T03:08:29.404Z,10
2017-06-27T03:09:29.437Z,10
2017-06-27T03:10:29.366Z,10
2017-06-27T03:11:29.337Z,10
2017-06-27T03:12:29.317Z,10
2017-06-27T03:13:29.291Z,10
2017-06-27T03:14:29.283Z,15
2017-06-27T03:15:29.257Z,15
2017-06-27T03:16:29.234Z,15
2017-06-27T03:17:29.205Z,15
2017-06-27T03:18:29.230Z,20
2017-06-27T03:19:29.461Z,20
2017-06-27T03:20:28.844Z,20
2017-06-27T03:21:29.165Z,20
2017-06-27T03:22:29.104Z,25
2017-06-27T03:23:29.082Z,25
2017-06-27T03:24:28.755Z,25
2017-06-27T03:25:29.033Z,25
2017-06-27T03:26:29.023Z,25
2017-06-27T03:27:28.685Z,30
2017-06-27T03:28:28.966Z,30
2017-06-27T03:29:28.946Z,30
2017-06-27T03:30:28.922Z,30
2017-06-27T03:31:28.906Z,35
2017-06-27T03:32:28.877Z,35
2017-06-27T03:33:28.864Z,35
2017-06-27T03:34:28.532Z,40
2017-06-27T03:35:28.865Z,40
2017-06-27T03:36:28.797Z,40
2017-06-27T03:37:28.773Z,40
2017-06-27T03:38:28.452Z,40
2017-06-27T03:39:28.734Z,45
2017-06-27T03:40:28.705Z,45
2017-06-27T03:41:28.682Z,50
2017-06-27T03:42:28.713Z,55
2017-06-27T03:43:28.649Z,60
2017-06-27T03:44:28.620Z,65
2017-06-27T03:45:28.597Z,65
2017-06-27T03:46:28.584Z,65
2017-06-27T03:47:28.573Z,70
2017-06-27T03:48:28.535Z,70
2017-06-27T03:49:28.225Z,90
2017-06-27T03:50:28.543Z,100
2017-06-27T03:51:28.476Z,105
2017-06-27T03:52:28.446Z,115
2017-06-27T03:53:28.425Z,120
2017-06-27T03:54:28.414Z,125
2017-06-27T03:55:28.381Z,130
2017-06-27T03:56:28.064Z,135
2017-06-27T03:57:28.337Z,130
2017-06-27T03:58:28.315Z,135
2017-06-27T03:59:27.994Z,135
2017-06-27T04:00:28.335Z,125
2017-06-27T04:01:28.276Z,105
2017-06-27T04:02:28.287Z,85
2017-06-27T04:03:27.916Z,85
2017-06-27T04:04:28.241Z,80
2017-06-27T04:05:27.867Z,80
2017-06-27T04:06:28.217Z,85
2017-06-27T04:07:28.174Z,85
2017-06-27T04:08:27.806Z,85
2017-06-27T04:09:28.089Z,85
2017-06-27T04:10:28.066Z,90
2017-06-27T04:11:28.038Z,90
2017-06-27T04:12:28.019Z,90
2017-06-27T04:13:27.693Z,90
2017-06-27T04:14:27.674Z,95
2017-06-27T04:15:27.959Z,110
2017-06-27T04:16:27.935Z,120
2017-06-27T04:17:27.920Z,135
2017-06-27T04:18:27.897Z,135
2017-06-27T04:19:27.876Z,125
2017-06-27T04:20:27.851Z,100
2017-06-27T04:21:27.520Z,105
2017-06-27T04:22:27.826Z,105
2017-06-27T04:23:27.793Z,105
2017-06-27T04:24:27.458Z,110
2017-06-27T04:25:27.751Z,110
2017-06-27T04:26:27.722Z,110
2017-06-27T04:27:27.708Z,115
2017-06-27T04:28:27.681Z,115
2017-06-27T04:29:27.659Z,115
2017-06-27T04:30:27.340Z,120
2017-06-27T04:31:27.619Z,125
2017-06-27T04:32:27.598Z,130
2017-06-27T04:33:27.583Z,135
2017-06-27T04:34:27.555Z,140
2017-06-27T04:35:27.537Z,145
2017-06-27T04:36:27.518Z,155
2017-06-27T04:37:26.890Z,155
2017-06-27T04:38:27.163Z,150
2017-06-27T04:39:27.442Z,155
2017-06-27T04:40:27.433Z,150
2017-06-27T04:41:27.107Z,155
2017-06-27T04:42:27.078Z,160
2017-06-27T04:43:27.365Z,160
2017-06-27T04:44:27.342Z,190
2017-06-27T04:45:27.322Z,175
2017-06-27T04:46:27.298Z,165
2017-06-27T04:47:27.280Z,165
2017-06-27T04:48:27.306Z,165
2017-06-27T04:49:27.240Z,170
2017-06-27T04:50:26.919Z,170
2017-06-27T04:51:26.594Z,170
2017-06-27T04:52:26.866Z,170
2017-06-27T04:53:27.148Z,175
2017-06-27T04:54:27.129Z,175
2017-06-27T04:55:27.110Z,180
2017-06-27T04:56:27.091Z,175
2017-06-27T04:57:27.066Z,180
2017-06-27T04:58:26.798Z,185
2017-06-27T04:59:27.021Z,200
2017-06-27T05:00:27.008Z,190
2017-06-27T05:01:26.983Z,225
2017-06-27T05:02:26.960Z,215
2017-06-27T05:03:26.940Z,235
2017-06-27T05:04:26.915Z,245
2017-06-27T05:05:26.601Z,220
2017-06-27T05:06:26.879Z,210
2017-06-27T05:07:26.554Z,215
2017-06-27T05:08:26.882Z,225
2017-06-27T05:09:26.824Z,220
2017-06-27T05:10:26.476Z,220
2017-06-27T05:11:26.823Z,230
2017-06-27T05:12:26.452Z,245
2017-06-27T05:13:26.724Z,250
2017-06-27T05:14:26.701Z,260
2017-06-27T05:15:26.678Z,295
2017-06-27T05:16:26.671Z,320
2017-06-27T05:17:26.698Z,330
2017-06-27T05:18:26.316Z,285
2017-06-27T05:19:26.683Z,315
2017-06-27T05:20:26.324Z,350
2017-06-27T05:21:26.565Z,350
2017-06-27T05:22:26.236Z,405
2017-06-27T05:23:26.520Z,465
2017-06-27T05:24:26.507Z,425
2017-06-27T05:25:26.480Z,325
2017-06-27T05:26:26.457Z,505
2017-06-27T05:27:26.135Z,335
2017-06-27T05:28:26.126Z,400
2017-06-27T05:29:26.411Z,460
2017-06-27T05:30:26.381Z,520
2017-06-27T05:31:26.385Z,440
2017-06-27T05:32:26.348Z,425
2017-06-27T05:33:26.314Z,495
2017-06-27T05:34:26.303Z,435
2017-06-27T05:35:26.278Z,385
2017-06-27T05:36:26.263Z,350
2017-06-27T05:37:25.938Z,425
2017-06-27T05:38:26.222Z,440
2017-06-27T05:39:26.196Z,390
2017-06-27T05:40:25.890Z,495
2017-06-27T05:41:25.865Z,460
2017-06-27T05:42:26.141Z,380
2017-06-27T05:43:26.122Z,545
2017-06-27T05:44:26.145Z,670
2017-06-27T05:45:26.082Z,530
2017-06-27T05:46:26.068Z,635
2017-06-27T05:47:26.037Z,605
2017-06-27T05:48:26.020Z,400
2017-06-27T05:49:25.706Z,410
2017-06-27T05:50:26.088Z,465
2017-06-27T05:51:25.969Z,545
2017-06-27T05:52:25.949Z,550
2017-06-27T05:53:25.928Z,525
2017-06-27T05:54:25.906Z,495
2017-06-27T05:55:25.936Z,390
2017-06-27T05:56:25.873Z,500
2017-06-27T05:57:25.871Z,495
2017-06-27T05:58:25.838Z,480
2017-06-27T05:59:25.816Z,440
2017-06-27T06:00:25.791Z,395
2017-06-27T06:01:25.780Z,405
2017-06-27T06:02:25.765Z,455
2017-06-27T06:03:25.740Z,415
2017-06-27T06:04:25.719Z,425
2017-06-27T06:05:25.712Z,410
2017-06-27T06:06:25.685Z,355
2017-06-27T06:07:25.668Z,340
2017-06-27T06:08:25.638Z,335
2017-06-27T06:09:25.624Z,340
2017-06-27T06:10:25.667Z,345
2017-06-27T06:11:25.586Z,355
2017-06-27T06:12:25.608Z,360
2017-06-27T06:13:25.549Z,360
2017-06-27T06:14:25.523Z,360
2017-06-27T06:15:26.413Z,345
2017-06-27T06:16:25.489Z,345
2017-06-27T06:17:25.469Z,345
2017-06-27T06:18:25.451Z,355
2017-06-27T06:19:25.435Z,385
2017-06-27T06:20:25.403Z,360
2017-06-27T06:21:25.393Z,375
2017-06-27T06:22:25.376Z,415
2017-06-27T06:23:25.354Z,450
2017-06-27T06:24:25.338Z,395
2017-06-27T06:25:25.313Z,405
2017-06-27T06:26:25.309Z,435
2017-06-27T06:27:25.277Z,450
2017-06-27T06:28:25.256Z,495
2017-06-27T06:29:25.246Z,565
2017-06-27T06:30:24.915Z,585
2017-06-27T06:31:25.193Z,520
2017-06-27T06:32:25.188Z,555
2017-06-27T06:33:24.859Z,490
2017-06-27T06:34:25.136Z,450
2017-06-27T06:35:24.838Z,525
2017-06-27T06:36:25.140Z,515
2017-06-27T06:37:25.081Z,475
2017-06-27T06:38:25.073Z,480
2017-06-27T06:39:24.830Z,495
2017-06-27T06:40:25.077Z,535
2017-06-27T06:41:25.012Z,605
2017-06-27T06:42:25.002Z,735
2017-06-27T06:43:24.971Z,700
2017-06-27T06:44:24.643Z,960
2017-06-27T06:45:24.635Z,800
2017-06-27T06:46:24.966Z,645
2017-06-27T06:47:24.932Z,800
2017-06-27T06:48:24.874Z,780
2017-06-27T06:49:24.875Z,760
2017-06-27T06:50:24.998Z,780
2017-06-27T06:51:24.822Z,720
2017-06-27T06:52:24.798Z,800
2017-06-27T06:53:24.793Z,595
2017-06-27T06:54:24.764Z,520
2017-06-27T06:55:24.811Z,480
2017-06-27T06:56:24.736Z,475
2017-06-27T06:57:24.419Z,545
2017-06-27T06:58:24.391Z,510
2017-06-27T06:59:24.677Z,505
2017-06-27T07:00:24.661Z,480
2017-06-27T07:01:24.641Z,475
2017-06-27T07:02:24.616Z,440
2017-06-27T07:03:24.607Z,490
2017-06-27T07:04:24.585Z,505
2017-06-27T07:05:24.275Z,480
2017-06-27T07:06:24.649Z,495
2017-06-27T07:07:23.934Z,505
2017-06-27T07:08:24.510Z,505
2017-06-27T07:09:24.497Z,555
2017-06-27T07:10:24.170Z,540
2017-06-27T07:11:24.461Z,515
2017-06-27T07:12:24.136Z,505
2017-06-27T07:13:24.432Z,495
2017-06-27T07:14:24.109Z,485
2017-06-27T07:15:24.382Z,475
2017-06-27T07:16:24.067Z,430
2017-06-27T07:17:23.762Z,425
2017-06-27T07:18:24.317Z,470
2017-06-27T07:19:24.002Z,430
2017-06-27T07:20:24.302Z,435
2017-06-27T07:21:24.267Z,430
2017-06-27T07:22:24.252Z,460
2017-06-27T07:23:24.240Z,535
2017-06-27T07:24:24.216Z,550
2017-06-27T07:25:23.946Z,525
2017-06-27T07:26:23.875Z,570
2017-06-27T07:27:24.166Z,565
2017-06-27T07:28:23.886Z,535
2017-06-27T07:29:23.819Z,495
2017-06-27T07:30:23.958Z,475
2017-06-27T07:31:24.089Z,475
2017-06-27T07:32:24.122Z,465
2017-06-27T07:33:24.046Z,505
2017-06-27T07:34:24.056Z,535
2017-06-27T07:35:24.015Z,540
2017-06-27T07:36:23.985Z,560
2017-06-27T07:37:23.669Z,600
2017-06-27T07:38:24.021Z,655
2017-06-27T07:39:23.967Z,800
2017-06-27T07:40:23.612Z,825
2017-06-27T07:41:23.892Z,905
2017-06-27T07:42:23.592Z,920
2017-06-27T07:43:23.562Z,745
2017-06-27T07:44:23.541Z,690
2017-06-27T07:45:23.817Z,710
2017-06-27T07:46:23.809Z,795
2017-06-27T07:47:23.853Z,660
2017-06-27T07:48:23.513Z,730
2017-06-27T07:49:23.447Z,570
2017-06-27T07:50:23.773Z,525
2017-06-27T07:51:23.704Z,545
2017-06-27T07:52:23.392Z,495
2017-06-27T07:53:23.682Z,550
2017-06-27T07:54:23.669Z,465
2017-06-27T07:55:23.690Z,445
2017-06-27T07:56:23.628Z,435
2017-06-27T07:57:23.605Z,430
2017-06-27T07:58:23.640Z,450
2017-06-27T07:59:23.563Z,425
2017-06-27T08:00:23.599Z,420
2017-06-27T08:01:23.528Z,400
2017-06-27T08:02:23.510Z,410
2017-06-27T08:03:23.498Z,430
2017-06-27T08:04:23.483Z,440
2017-06-27T08:05:23.466Z,460
2017-06-27T08:06:23.441Z,485
2017-06-27T08:07:23.422Z,495
2017-06-27T08:08:23.409Z,515
2017-06-27T08:09:23.388Z,540
2017-06-27T08:10:23.362Z,545
2017-06-27T08:11:23.343Z,580
2017-06-27T08:12:23.331Z,560
2017-06-27T08:13:23.312Z,560
2017-06-27T08:14:23.289Z,580
2017-06-27T08:15:23.263Z,620
2017-06-27T08:16:23.304Z,650
2017-06-27T08:17:23.285Z,685
2017-06-27T08:18:22.908Z,725
2017-06-27T08:19:23.203Z,685
2017-06-27T08:20:23.244Z,625
2017-06-27T08:21:23.170Z,575
2017-06-27T08:22:23.407Z,555
2017-06-27T08:23:23.128Z,545
2017-06-27T08:24:23.110Z,550
2017-06-27T08:25:23.092Z,580
2017-06-27T08:26:23.072Z,585
2017-06-27T08:27:23.055Z,600
2017-06-27T08:28:23.296Z,595
2017-06-27T08:29:22.714Z,600
2017-06-27T08:30:22.995Z,625
2017-06-27T08:31:22.994Z,670
2017-06-27T08:32:22.967Z,740
2017-06-27T08:33:22.941Z,640
2017-06-27T08:34:22.976Z,625
2017-06-27T08:35:22.911Z,635
2017-06-27T08:36:22.890Z,620
2017-06-27T08:37:22.927Z,610
2017-06-27T08:38:22.569Z,615
2017-06-27T08:39:22.847Z,640
2017-06-27T08:40:22.880Z,650
2017-06-27T08:41:22.802Z,640
2017-06-27T08:42:22.785Z,655
2017-06-27T08:43:22.159Z,725
2017-06-27T08:44:22.768Z,685
2017-06-27T08:45:22.733Z,990
2017-06-27T08:46:22.718Z,725
2017-06-27T08:47:22.395Z,720
2017-06-27T08:48:22.673Z,755
2017-06-27T08:49:23.272Z,795
2017-06-27T08:50:22.643Z,920
2017-06-27T08:51:22.625Z,885
2017-06-27T08:52:22.628Z,825
2017-06-27T08:53:22.649Z,775
2017-06-27T08:54:22.577Z,855
2017-06-27T08:55:22.557Z,795
2017-06-27T08:56:22.535Z,1480
2017-06-27T08:57:22.567Z,1065
2017-06-27T08:58:22.503Z,780
2017-06-27T08:59:22.490Z,740
2017-06-27T09:00:22.516Z,760
2017-06-27T09:01:22.448Z,725
2017-06-27T09:02:22.132Z,800
2017-06-27T09:03:22.410Z,760
2017-06-27T09:04:22.407Z,690
2017-06-27T09:05:22.379Z,670
2017-06-27T09:06:22.403Z,640
2017-06-27T09:07:22.058Z,625
2017-06-27T09:08:22.329Z,620
2017-06-27T09:09:22.317Z,590
2017-06-27T09:10:22.353Z,560
2017-06-27T09:11:22.285Z,535
2017-06-27T09:12:22.270Z,525
2017-06-27T09:13:22.246Z,520
2017-06-27T09:14:22.238Z,520
2017-06-27T09:15:22.235Z,550
2017-06-27T09:16:22.189Z,505
2017-06-27T09:17:22.192Z,495
2017-06-27T09:18:22.156Z,500
2017-06-27T09:19:22.139Z,505
2017-06-27T09:20:22.124Z,515
2017-06-27T09:21:21.809Z,525
2017-06-27T09:22:22.095Z,535
2017-06-27T09:23:22.082Z,535
2017-06-27T09:24:22.055Z,535
2017-06-27T09:25:22.028Z,530
2017-06-27T09:26:21.712Z,515
2017-06-27T09:27:51.243Z,485
2017-06-27T09:28:22.037Z,480
2017-06-27T09:29:21.956Z,475
2017-06-27T09:30:21.944Z,485
2017-06-27T09:31:21.938Z,485
2017-06-27T09:32:21.912Z,480
2017-06-27T09:33:51.101Z,505
2017-06-27T09:34:21.871Z,510
2017-06-27T09:35:21.854Z,510
2017-06-27T09:36:21.837Z,505
2017-06-27T09:37:21.821Z,495
2017-06-27T09:38:21.796Z,490
2017-06-27T09:39:21.791Z,490
2017-06-27T09:40:21.755Z,495
2017-06-27T09:41:21.744Z,495
2017-06-27T09:42:21.738Z,500
2017-06-27T09:43:21.709Z,505
2017-06-27T09:44:21.694Z,520
2017-06-27T09:45:21.661Z,535
2017-06-27T09:46:21.656Z,555
2017-06-27T09:47:21.347Z,570
2017-06-27T09:48:21.619Z,575
2017-06-27T09:49:21.597Z,565
2017-06-27T09:50:21.587Z,560
2017-06-27T09:51:21.561Z,550
2017-06-27T09:52:21.543Z,545
2017-06-27T09:53:21.542Z,535
2017-06-27T09:54:21.206Z,520
2017-06-27T09:55:21.189Z,525
2017-06-27T09:56:21.496Z,530
2017-06-27T09:57:21.153Z,540
2017-06-27T09:58:21.454Z,550
2017-06-27T09:59:21.429Z,570
2017-06-27T10:00:21.439Z,585
2017-06-27T10:01:21.485Z,595
2017-06-27T10:02:21.363Z,590
2017-06-27T10:03:21.346Z,570
2017-06-27T10:04:21.332Z,555
2017-06-27T10:05:20.769Z,545
2017-06-27T10:06:21.024Z,535
2017-06-27T10:07:21.275Z,525
2017-06-27T10:08:21.264Z,525
2017-06-27T10:09:21.245Z,525
2017-06-27T10:10:21.227Z,525
2017-06-27T10:11:21.208Z,525
2017-06-27T10:12:21.195Z,525
2017-06-27T10:13:20.919Z,530
2017-06-27T10:14:20.857Z,540
2017-06-27T10:15:20.828Z,560
2017-06-27T10:16:21.118Z,590
2017-06-27T10:17:21.090Z,620
2017-06-27T10:18:20.769Z,635
2017-06-27T10:19:20.770Z,640
2017-06-27T10:20:20.753Z,650
2017-06-27T10:21:21.082Z,655
2017-06-27T10:22:21.009Z,665
2017-06-27T10:23:20.998Z,670
2017-06-27T10:24:20.727Z,675
2017-06-27T10:25:20.982Z,695
2017-06-27T10:26:20.946Z,725
2017-06-27T10:27:20.631Z,755
2017-06-27T10:28:20.947Z,770
2017-06-27T10:29:20.886Z,865
2017-06-27T10:30:20.935Z,1350
2017-06-27T10:31:20.866Z,870
2017-06-27T10:32:20.829Z,810
2017-06-27T10:33:20.205Z,970
2017-06-27T10:34:20.807Z,735
2017-06-27T10:35:20.497Z,680
2017-06-27T10:36:20.559Z,660
2017-06-27T10:37:20.762Z,695
2017-06-27T10:38:20.756Z,805
2017-06-27T10:39:20.404Z,790
2017-06-27T10:40:20.693Z,780
2017-06-27T10:41:20.687Z,710
2017-06-27T10:42:20.372Z,675
2017-06-27T10:43:20.854Z,660
2017-06-27T10:44:20.639Z,660
2017-06-27T10:45:20.618Z,605
2017-06-27T10:46:20.606Z,575
2017-06-27T10:47:20.606Z,560
2017-06-27T10:48:20.581Z,575
2017-06-27T10:49:20.546Z,580
2017-06-27T10:50:20.330Z,570
2017-06-27T10:51:20.210Z,560
2017-06-27T10:52:19.595Z,540
2017-06-27T10:53:20.493Z,530
2017-06-27T10:54:20.519Z,530
2017-06-27T10:55:20.162Z,530
2017-06-27T10:56:20.484Z,530
2017-06-27T10:57:20.398Z,525
2017-06-27T10:58:20.401Z,525
2017-06-27T10:59:20.124Z,520
2017-06-27T11:00:19.452Z,500
2017-06-27T11:01:20.339Z,495
2017-06-27T11:02:20.617Z,495
2017-06-27T11:03:20.321Z,505
2017-06-27T11:04:20.326Z,510
2017-06-27T11:05:19.974Z,515
2017-06-27T11:06:19.953Z,510
2017-06-27T11:07:20.243Z,505
2017-06-27T11:08:20.224Z,510
2017-06-27T11:09:20.316Z,510
2017-06-27T11:10:20.230Z,510
2017-06-27T11:11:20.167Z,500
2017-06-27T11:12:20.156Z,500
2017-06-27T11:13:20.137Z,500
2017-06-27T11:14:20.126Z,495
2017-06-27T11:15:20.150Z,495
2017-06-27T11:16:19.833Z,500
2017-06-27T11:17:19.763Z,495
2017-06-27T11:18:19.745Z,490
2017-06-27T11:19:20.035Z,495
2017-06-27T11:20:20.228Z,495
2017-06-27T11:21:19.909Z,500
2017-06-27T11:22:19.671Z,515
2017-06-27T11:23:19.959Z,525
2017-06-27T11:24:19.940Z,535
2017-06-27T11:25:19.624Z,545
2017-06-27T11:26:19.901Z,560
2017-06-27T11:27:19.879Z,575
2017-06-27T11:28:19.866Z,585
2017-06-27T11:29:19.845Z,600
2017-06-27T11:30:19.573Z,605
2017-06-27T11:31:19.511Z,610
2017-06-27T11:32:19.802Z,615
2017-06-27T11:33:19.777Z,605
2017-06-27T11:34:19.803Z,610
2017-06-27T11:35:19.794Z,615
2017-06-27T11:36:19.721Z,625
2017-06-27T11:37:19.709Z,625
2017-06-27T11:38:19.686Z,620
2017-06-27T11:39:19.427Z,610
2017-06-27T11:40:19.666Z,605
2017-06-27T11:41:19.662Z,600
2017-06-27T11:42:19.062Z,595
2017-06-27T11:43:19.616Z,585
2017-06-27T11:44:19.302Z,580
2017-06-27T11:45:19.569Z,570
2017-06-27T11:46:19.547Z,560
2017-06-27T11:47:19.542Z,550
2017-06-27T11:48:19.224Z,555
2017-06-27T11:49:19.498Z,560
2017-06-27T11:50:19.196Z,560
2017-06-27T11:51:19.513Z,560
2017-06-27T11:52:19.505Z,565
2017-06-27T11:53:19.482Z,565
2017-06-27T11:54:19.716Z,565
2017-06-27T11:55:19.405Z,565
2017-06-27T11:56:19.442Z,565
2017-06-27T11:57:19.366Z,560
2017-06-27T11:58:19.450Z,560
2017-06-27T11:59:19.334Z,560
2017-06-27T12:00:19.324Z,565
2017-06-27T12:01:19.293Z,560
2017-06-27T12:02:19.326Z,555
2017-06-27T12:03:19.262Z,555
2017-06-27T12:04:19.248Z,565
2017-06-27T12:05:19.308Z,565
2017-06-27T12:06:19.226Z,565
2017-06-27T12:07:19.287Z,570
2017-06-27T12:08:19.207Z,575
2017-06-27T12:09:19.210Z,580
2017-06-27T12:10:19.704Z,585
2017-06-27T12:11:19.382Z,590
2017-06-27T12:12:19.374Z,580
2017-06-27T12:13:19.094Z,580
2017-06-27T12:14:19.189Z,580
2017-06-27T12:15:18.758Z,575
2017-06-27T12:16:18.743Z,580
2017-06-27T12:17:19.048Z,570
2017-06-27T12:19:24.011Z,560
2017-06-27T12:20:20.633Z,555
2017-06-27T12:21:19.182Z,545
2017-06-27T12:22:18.948Z,535
2017-06-27T12:23:18.924Z,525
2017-06-27T12:24:18.907Z,520
2017-06-27T12:25:18.899Z,515
2017-06-27T12:26:20.428Z,510
2017-06-27T12:27:18.868Z,515
2017-06-27T12:28:19.033Z,500
2017-06-27T12:29:18.520Z,490
2017-06-27T12:30:18.851Z,480
2017-06-27T12:31:18.986Z,475
2017-06-27T12:32:18.771Z,465
2017-06-27T12:33:18.459Z,460
2017-06-27T12:34:19.336Z,455
2017-06-27T12:35:18.765Z,450
2017-06-27T12:36:18.914Z,455
2017-06-27T12:37:19.283Z,455
2017-06-27T12:38:18.709Z,455
2017-06-27T12:39:18.658Z,450
2017-06-27T12:40:18.641Z,435
2017-06-27T12:41:18.661Z,420
2017-06-27T12:42:19.953Z,410
2017-06-27T12:43:18.574Z,395
2017-06-27T12:44:18.607Z,385
2017-06-27T12:45:18.954Z,380
2017-06-27T12:46:18.541Z,380
2017-06-27T12:47:18.508Z,375
2017-06-27T12:48:18.489Z,380
2017-06-27T12:49:18.461Z,385
2017-06-27T12:51:18.436Z,395
2017-06-27T12:52:20.720Z,400
2017-06-27T12:53:18.393Z,410
2017-06-27T12:54:18.446Z,415
2017-06-27T12:55:18.763Z,440
2017-06-27T12:56:18.790Z,440
2017-06-27T12:57:18.622Z,455
2017-06-27T12:58:18.013Z,460
2017-06-27T12:59:18.290Z,470
2017-06-27T13:00:18.529Z,470
2017-06-27T13:01:18.254Z,470
2017-06-27T13:02:18.251Z,465
2017-06-27T13:03:18.567Z,460
2017-06-27T13:04:18.206Z,455
2017-06-27T13:05:17.890Z,450
2017-06-27T13:06:18.172Z,440
2017-06-27T13:07:18.151Z,430
2017-06-27T13:08:18.879Z,420
2017-06-27T13:09:18.157Z,410
2017-06-27T13:10:19.159Z,395
2017-06-27T13:11:18.284Z,390
2017-06-27T13:12:18.062Z,385
2017-06-27T13:13:18.386Z,380
2017-06-27T13:14:18.072Z,375
2017-06-27T13:15:18.003Z,370
2017-06-27T13:16:18.442Z,370
2017-06-27T13:17:17.866Z,365
2017-06-27T13:18:17.962Z,360
2017-06-27T13:19:17.977Z,360
2017-06-27T13:20:17.975Z,365
2017-06-27T13:21:17.927Z,370
2017-06-27T13:22:17.872Z,370
2017-06-27T13:23:17.867Z,370
2017-06-27T13:24:19.013Z,370
2017-06-27T13:25:17.979Z,370
2017-06-27T13:26:17.901Z,365
2017-06-27T13:27:18.746Z,365
2017-06-27T13:28:17.468Z,370
2017-06-27T13:29:19.758Z,370
2017-06-27T13:30:17.736Z,365
2017-06-27T13:31:17.761Z,360
2017-06-27T13:32:17.728Z,355
2017-06-27T13:33:17.681Z,350
2017-06-27T13:35:17.701Z,335
2017-06-27T13:36:17.737Z,340
2017-06-27T13:37:17.623Z,330
2017-06-27T13:38:17.687Z,330
2017-06-27T13:39:17.615Z,335
2017-06-27T13:40:17.550Z,345
2017-06-27T13:41:17.737Z,365
2017-06-27T13:42:17.516Z,380
2017-06-27T13:43:18.494Z,395
2017-06-27T13:44:18.379Z,405
2017-06-27T13:45:17.460Z,425
2017-06-27T13:46:17.438Z,420
2017-06-27T13:47:17.531Z,425
2017-06-27T13:48:18.921Z,425
2017-06-27T13:49:17.485Z,425
2017-06-27T13:50:19.572Z,420
2017-06-27T13:51:17.405Z,415
2017-06-27T13:52:17.027Z,405
2017-06-27T13:53:17.314Z,400
2017-06-27T13:54:17.905Z,390
2017-06-27T13:55:17.269Z,385
2017-06-27T13:56:17.251Z,385
2017-06-27T13:57:19.440Z,380
2017-06-27T13:58:17.215Z,375
2017-06-27T13:59:17.520Z,375
2017-06-27T14:00:18.879Z,370
2017-06-27T14:01:17.214Z,370
2017-06-27T14:02:17.168Z,370
2017-06-27T14:03:17.743Z,365